sensor_id;sensor_type;location;lat;lon;timestamp;temperature;humidity
32400;DHT22;45045;45.440;9.178;2023-05-20T00:00:16;20.10;99.90
32400;DHT22;45045;45.440;9.178;2023-05-20T00:02:42;20.10;99.90
32400;DHT22;45045;45.440;9.178;2023-05-20T00:05:08;20.10;99.90
32400;DHT22;45045;45.440;9.178;2023-05-20T00:07:34;20.10;99.90
32400;DHT22;45045;45.440;9.178;2023-05-20T00:09:59;20.10;99.90
32400;DHT22;45045;45.440;9.178;2023-05-20T00:12:25;20.10;99.90
32400;DHT22;45045;45.440;9.178;2023-05-20T00:14:50;20.10;99.90
32400;DHT22;45045;45.440;9.178;2023-05-20T00:17:16;20.10;99.90
32400;DHT22;45045;45.440;9.178;2023-05-20T00:19:42;20.10;99.90
32400;DHT22;45045;45.440;9.178;2023-05-20T00:22:08;20.10;99.90
32400;DHT22;45045;45.440;9.178;2023-05-20T00:24:33;20.10;99.90
32400;DHT22;45045;45.440;9.178;2023-05-20T00:26:59;20.10;99.90
32400;DHT22;45045;45.440;9.178;2023-05-20T00:29:25;20.10;99.90
32400;DHT22;45045;45.440;9.178;2023-05-20T00:31:50;20.10;99.90
32400;DHT22;45045;45.440;9.178;2023-05-20T00:34:16;20.10;99.90
32400;DHT22;45045;45.440;9.178;2023-05-20T00:36:42;20.10;99.90
32400;DHT22;45045;45.440;9.178;2023-05-20T00:39:07;20.10;99.90
32400;DHT22;45045;45.440;9.178;2023-05-20T00:41:33;20.10;99.90
32400;DHT22;45045;45.440;9.178;2023-05-20T00:43:59;20.10;99.90
32400;DHT22;45045;45.440;9.178;2023-05-20T00:46:25;20.10;99.90
32400;DHT22;45045;45.440;9.178;2023-05-20T00:48:52;20.10;99.90
32400;DHT22;45045;45.440;9.178;2023-05-20T00:51:19;20.10;99.90
32400;DHT22;45045;45.440;9.178;2023-05-20T00:53:45;20.00;99.90
32400;DHT22;45045;45.440;9.178;2023-05-20T00:56:11;20.00;99.90
32400;DHT22;45045;45.440;9.178;2023-05-20T00:58:37;20.00;99.90
32400;DHT22;45045;45.440;9.178;2023-05-20T01:01:04;20.00;99.90
32400;DHT22;45045;45.440;9.178;2023-05-20T01:03:31;20.00;99.90
32400;DHT22;45045;45.440;9.178;2023-05-20T01:05:56;20.00;99.90
32400;DHT22;45045;45.440;9.178;2023-05-20T01:08:24;20.00;99.90
32400;DHT22;45045;45.440;9.178;2023-05-20T01:11:13;20.00;99.90
32400;DHT22;45045;45.440;9.178;2023-05-20T01:13:45;20.00;99.90
32400;DHT22;45045;45.440;9.178;2023-05-20T01:16:13;20.00;99.90
32400;DHT22;45045;45.440;9.178;2023-05-20T01:18:42;20.00;99.90
32400;DHT22;45045;45.440;9.178;2023-05-20T01:21:11;20.00;99.90
32400;DHT22;45045;45.440;9.178;2023-05-20T01:23:39;20.00;99.90
32400;DHT22;45045;45.440;9.178;2023-05-20T01:26:05;20.00;99.90
32400;DHT22;45045;45.440;9.178;2023-05-20T01:28:35;20.00;99.90
32400;DHT22;45045;45.440;9.178;2023-05-20T01:31:04;20.00;99.90
32400;DHT22;45045;45.440;9.178;2023-05-20T01:33:35;20.00;99.90
32400;DHT22;45045;45.440;9.178;2023-05-20T01:36:01;20.00;99.90
32400;DHT22;45045;45.440;9.178;2023-05-20T01:38:27;20.00;99.90
32400;DHT22;45045;45.440;9.178;2023-05-20T01:40:54;20.00;99.90
32400;DHT22;45045;45.440;9.178;2023-05-20T01:43:22;20.00;99.90
32400;DHT22;45045;45.440;9.178;2023-05-20T01:45:49;20.00;99.90
32400;DHT22;45045;45.440;9.178;2023-05-20T01:48:14;20.00;99.90
32400;DHT22;45045;45.440;9.178;2023-05-20T01:50:41;20.00;99.90
32400;DHT22;45045;45.440;9.178;2023-05-20T01:53:06;20.00;99.90
32400;DHT22;45045;45.440;9.178;2023-05-20T01:55:34;20.00;99.90
32400;DHT22;45045;45.440;9.178;2023-05-20T01:58:00;20.00;99.90
32400;DHT22;45045;45.440;9.178;2023-05-20T02:00:26;20.00;99.90
32400;DHT22;45045;45.440;9.178;2023-05-20T02:02:51;20.00;99.90
32400;DHT22;45045;45.440;9.178;2023-05-20T02:05:17;20.00;99.90
32400;DHT22;45045;45.440;9.178;2023-05-20T02:07:43;20.00;99.90
32400;DHT22;45045;45.440;9.178;2023-05-20T02:10:09;20.00;99.90
32400;DHT22;45045;45.440;9.178;2023-05-20T02:12:35;20.00;99.90
32400;DHT22;45045;45.440;9.178;2023-05-20T02:15:01;20.00;99.90
32400;DHT22;45045;45.440;9.178;2023-05-20T02:17:27;20.00;99.90
32400;DHT22;45045;45.440;9.178;2023-05-20T02:19:52;20.00;99.90
32400;DHT22;45045;45.440;9.178;2023-05-20T02:22:18;20.00;99.90
32400;DHT22;45045;45.440;9.178;2023-05-20T02:24:44;20.00;99.90
32400;DHT22;45045;45.440;9.178;2023-05-20T02:27:10;20.00;99.90
32400;DHT22;45045;45.440;9.178;2023-05-20T02:29:36;20.00;99.90
32400;DHT22;45045;45.440;9.178;2023-05-20T02:32:02;20.00;99.90
32400;DHT22;45045;45.440;9.178;2023-05-20T02:34:29;20.00;99.90
32400;DHT22;45045;45.440;9.178;2023-05-20T02:36:55;20.00;99.90
32400;DHT22;45045;45.440;9.178;2023-05-20T02:39:21;19.90;99.90
32400;DHT22;45045;45.440;9.178;2023-05-20T02:41:47;20.00;99.90
32400;DHT22;45045;45.440;9.178;2023-05-20T02:44:13;20.00;99.90
32400;DHT22;45045;45.440;9.178;2023-05-20T02:46:39;19.90;99.90
32400;DHT22;45045;45.440;9.178;2023-05-20T02:49:05;19.90;99.90
32400;DHT22;45045;45.440;9.178;2023-05-20T02:51:31;19.90;99.90
32400;DHT22;45045;45.440;9.178;2023-05-20T02:53:57;19.90;99.90
32400;DHT22;45045;45.440;9.178;2023-05-20T02:56:23;19.90;99.90
32400;DHT22;45045;45.440;9.178;2023-05-20T02:58:49;20.00;99.90
32400;DHT22;45045;45.440;9.178;2023-05-20T03:01:15;19.90;99.90
32400;DHT22;45045;45.440;9.178;2023-05-20T03:03:41;19.90;99.90
32400;DHT22;45045;45.440;9.178;2023-05-20T03:06:07;19.90;99.90
32400;DHT22;45045;45.440;9.178;2023-05-20T03:08:33;19.90;99.90
32400;DHT22;45045;45.440;9.178;2023-05-20T03:10:59;19.90;99.90
32400;DHT22;45045;45.440;9.178;2023-05-20T03:13:25;19.90;99.90
32400;DHT22;45045;45.440;9.178;2023-05-20T03:15:51;19.90;99.90
32400;DHT22;45045;45.440;9.178;2023-05-20T03:18:17;19.90;99.90
32400;DHT22;45045;45.440;9.178;2023-05-20T03:20:43;19.90;99.90
32400;DHT22;45045;45.440;9.178;2023-05-20T03:23:09;19.90;99.90
32400;DHT22;45045;45.440;9.178;2023-05-20T03:25:36;19.90;99.90
32400;DHT22;45045;45.440;9.178;2023-05-20T03:28:02;19.90;99.90
32400;DHT22;45045;45.440;9.178;2023-05-20T03:30:28;19.90;99.90
32400;DHT22;45045;45.440;9.178;2023-05-20T03:32:54;19.90;99.90
32400;DHT22;45045;45.440;9.178;2023-05-20T03:35:22;19.90;99.90
32400;DHT22;45045;45.440;9.178;2023-05-20T03:37:48;19.90;99.90
32400;DHT22;45045;45.440;9.178;2023-05-20T03:40:16;19.90;99.90
32400;DHT22;45045;45.440;9.178;2023-05-20T03:42:41;19.90;99.90
32400;DHT22;45045;45.440;9.178;2023-05-20T03:45:08;19.80;99.90
32400;DHT22;45045;45.440;9.178;2023-05-20T03:47:33;19.90;99.90
32400;DHT22;45045;45.440;9.178;2023-05-20T03:49:59;19.80;99.90
32400;DHT22;45045;45.440;9.178;2023-05-20T03:52:25;19.80;99.90
32400;DHT22;45045;45.440;9.178;2023-05-20T03:54:52;19.90;99.90
32400;DHT22;45045;45.440;9.178;2023-05-20T03:57:18;19.90;99.90
32400;DHT22;45045;45.440;9.178;2023-05-20T03:59:44;19.90;99.90
32400;DHT22;45045;45.440;9.178;2023-05-20T04:02:10;19.80;99.90
32400;DHT22;45045;45.440;9.178;2023-05-20T04:04:36;19.90;99.90
32400;DHT22;45045;45.440;9.178;2023-05-20T04:07:03;19.80;99.90
32400;DHT22;45045;45.440;9.178;2023-05-20T04:09:32;19.90;99.90
32400;DHT22;45045;45.440;9.178;2023-05-20T04:11:57;19.90;99.90
32400;DHT22;45045;45.440;9.178;2023-05-20T04:14:23;19.80;99.90
32400;DHT22;45045;45.440;9.178;2023-05-20T04:16:49;19.80;99.90
32400;DHT22;45045;45.440;9.178;2023-05-20T04:19:16;19.80;99.90
32400;DHT22;45045;45.440;9.178;2023-05-20T04:21:44;19.80;99.90
32400;DHT22;45045;45.440;9.178;2023-05-20T04:24:10;19.80;99.90
32400;DHT22;45045;45.440;9.178;2023-05-20T04:26:35;19.80;99.90
32400;DHT22;45045;45.440;9.178;2023-05-20T04:29:02;19.80;99.90
32400;DHT22;45045;45.440;9.178;2023-05-20T04:31:28;19.80;99.90
32400;DHT22;45045;45.440;9.178;2023-05-20T04:33:55;19.80;99.90
32400;DHT22;45045;45.440;9.178;2023-05-20T04:36:22;19.80;99.90
32400;DHT22;45045;45.440;9.178;2023-05-20T04:38:53;19.80;99.90
32400;DHT22;45045;45.440;9.178;2023-05-20T04:41:19;19.80;99.90
32400;DHT22;45045;45.440;9.178;2023-05-20T04:43:45;19.80;99.90
32400;DHT22;45045;45.440;9.178;2023-05-20T04:46:11;19.80;99.90
32400;DHT22;45045;45.440;9.178;2023-05-20T04:48:36;19.80;99.90
32400;DHT22;45045;45.440;9.178;2023-05-20T04:51:02;19.80;99.90
32400;DHT22;45045;45.440;9.178;2023-05-20T04:53:28;19.80;99.90
32400;DHT22;45045;45.440;9.178;2023-05-20T04:55:55;19.80;99.90
32400;DHT22;45045;45.440;9.178;2023-05-20T04:58:22;19.80;99.90
32400;DHT22;45045;45.440;9.178;2023-05-20T05:00:50;19.80;99.90
32400;DHT22;45045;45.440;9.178;2023-05-20T05:03:16;19.80;99.90
32400;DHT22;45045;45.440;9.178;2023-05-20T05:05:42;19.80;99.90
32400;DHT22;45045;45.440;9.178;2023-05-20T05:08:09;19.80;99.90
32400;DHT22;45045;45.440;9.178;2023-05-20T05:10:36;19.80;99.90
32400;DHT22;45045;45.440;9.178;2023-05-20T05:13:02;19.80;99.90
32400;DHT22;45045;45.440;9.178;2023-05-20T05:15:29;19.80;99.90
32400;DHT22;45045;45.440;9.178;2023-05-20T05:17:55;19.80;99.90
32400;DHT22;45045;45.440;9.178;2023-05-20T05:20:21;19.80;99.90
32400;DHT22;45045;45.440;9.178;2023-05-20T05:22:46;19.80;99.90
32400;DHT22;45045;45.440;9.178;2023-05-20T05:25:12;19.80;99.90
32400;DHT22;45045;45.440;9.178;2023-05-20T05:27:38;19.80;99.90
32400;DHT22;45045;45.440;9.178;2023-05-20T05:30:05;19.80;99.90
32400;DHT22;45045;45.440;9.178;2023-05-20T05:32:31;19.80;99.90
32400;DHT22;45045;45.440;9.178;2023-05-20T05:34:58;19.80;99.90
32400;DHT22;45045;45.440;9.178;2023-05-20T05:37:24;19.80;99.90
32400;DHT22;45045;45.440;9.178;2023-05-20T05:39:49;19.80;99.90
32400;DHT22;45045;45.440;9.178;2023-05-20T05:42:15;19.80;99.90
32400;DHT22;45045;45.440;9.178;2023-05-20T05:44:41;19.80;99.90
32400;DHT22;45045;45.440;9.178;2023-05-20T05:47:07;19.80;99.90
32400;DHT22;45045;45.440;9.178;2023-05-20T05:49:33;19.80;99.90
32400;DHT22;45045;45.440;9.178;2023-05-20T05:51:59;19.80;99.90
32400;DHT22;45045;45.440;9.178;2023-05-20T05:54:25;19.80;99.90
32400;DHT22;45045;45.440;9.178;2023-05-20T05:56:51;19.80;99.90
32400;DHT22;45045;45.440;9.178;2023-05-20T05:59:17;19.80;99.90
32400;DHT22;45045;45.440;9.178;2023-05-20T06:01:43;19.70;99.90
32400;DHT22;45045;45.440;9.178;2023-05-20T06:04:09;19.80;99.90
32400;DHT22;45045;45.440;9.178;2023-05-20T06:06:35;19.80;99.90
32400;DHT22;45045;45.440;9.178;2023-05-20T06:09:01;19.80;99.90
32400;DHT22;45045;45.440;9.178;2023-05-20T06:11:27;19.80;99.90
32400;DHT22;45045;45.440;9.178;2023-05-20T06:13:53;19.80;99.90
32400;DHT22;45045;45.440;9.178;2023-05-20T06:16:19;19.80;99.90
32400;DHT22;45045;45.440;9.178;2023-05-20T06:18:45;19.80;99.90
32400;DHT22;45045;45.440;9.178;2023-05-20T06:21:11;19.90;99.90
32400;DHT22;45045;45.440;9.178;2023-05-20T06:23:37;19.80;99.90
32400;DHT22;45045;45.440;9.178;2023-05-20T06:26:02;19.80;99.90
32400;DHT22;45045;45.440;9.178;2023-05-20T06:28:29;19.80;99.90
32400;DHT22;45045;45.440;9.178;2023-05-20T06:30:55;19.80;99.90
32400;DHT22;45045;45.440;9.178;2023-05-20T06:33:24;19.90;99.90
32400;DHT22;45045;45.440;9.178;2023-05-20T06:35:54;19.80;99.90
32400;DHT22;45045;45.440;9.178;2023-05-20T06:38:19;19.80;99.90
32400;DHT22;45045;45.440;9.178;2023-05-20T06:40:46;19.90;99.90
32400;DHT22;45045;45.440;9.178;2023-05-20T06:43:13;19.90;99.90
32400;DHT22;45045;45.440;9.178;2023-05-20T06:45:39;19.90;99.90
32400;DHT22;45045;45.440;9.178;2023-05-20T06:48:05;19.90;99.90
32400;DHT22;45045;45.440;9.178;2023-05-20T06:50:31;19.90;99.90
32400;DHT22;45045;45.440;9.178;2023-05-20T06:52:56;19.90;99.90
32400;DHT22;45045;45.440;9.178;2023-05-20T06:55:22;19.90;99.90
32400;DHT22;45045;45.440;9.178;2023-05-20T06:57:48;19.90;99.90
32400;DHT22;45045;45.440;9.178;2023-05-20T07:00:14;19.90;99.90
32400;DHT22;45045;45.440;9.178;2023-05-20T07:02:41;19.90;99.90
32400;DHT22;45045;45.440;9.178;2023-05-20T07:05:08;19.90;99.90
32400;DHT22;45045;45.440;9.178;2023-05-20T07:07:34;19.90;99.90
32400;DHT22;45045;45.440;9.178;2023-05-20T07:10:00;19.90;99.90
32400;DHT22;45045;45.440;9.178;2023-05-20T07:12:25;19.90;99.90
32400;DHT22;45045;45.440;9.178;2023-05-20T07:14:51;19.90;99.90
32400;DHT22;45045;45.440;9.178;2023-05-20T07:17:17;19.90;99.90
32400;DHT22;45045;45.440;9.178;2023-05-20T07:19:42;19.90;99.90
32400;DHT22;45045;45.440;9.178;2023-05-20T07:22:08;20.00;99.90
32400;DHT22;45045;45.440;9.178;2023-05-20T07:24:35;20.00;99.90
32400;DHT22;45045;45.440;9.178;2023-05-20T07:27:01;19.90;99.90
32400;DHT22;45045;45.440;9.178;2023-05-20T07:29:27;19.90;99.90
32400;DHT22;45045;45.440;9.178;2023-05-20T07:31:52;19.90;99.90
32400;DHT22;45045;45.440;9.178;2023-05-20T07:34:18;19.90;99.90
32400;DHT22;45045;45.440;9.178;2023-05-20T07:36:44;19.90;99.90
32400;DHT22;45045;45.440;9.178;2023-05-20T07:39:10;19.90;99.90
32400;DHT22;45045;45.440;9.178;2023-05-20T07:41:39;20.00;99.90
32400;DHT22;45045;45.440;9.178;2023-05-20T07:44:05;20.00;99.90
32400;DHT22;45045;45.440;9.178;2023-05-20T07:46:33;20.00;99.90
32400;DHT22;45045;45.440;9.178;2023-05-20T07:48:59;20.00;99.90
32400;DHT22;45045;45.440;9.178;2023-05-20T07:51:25;20.00;99.90
32400;DHT22;45045;45.440;9.178;2023-05-20T07:53:50;20.00;99.90
32400;DHT22;45045;45.440;9.178;2023-05-20T07:56:16;20.00;99.90
32400;DHT22;45045;45.440;9.178;2023-05-20T07:58:42;20.00;99.90
32400;DHT22;45045;45.440;9.178;2023-05-20T08:01:08;20.00;99.90
32400;DHT22;45045;45.440;9.178;2023-05-20T08:03:35;20.00;99.90
32400;DHT22;45045;45.440;9.178;2023-05-20T08:06:04;20.00;99.90
32400;DHT22;45045;45.440;9.178;2023-05-20T08:08:30;20.00;99.90
32400;DHT22;45045;45.440;9.178;2023-05-20T08:10:55;20.00;99.90
32400;DHT22;45045;45.440;9.178;2023-05-20T08:13:21;20.00;99.90
32400;DHT22;45045;45.440;9.178;2023-05-20T08:15:47;20.00;99.90
32400;DHT22;45045;45.440;9.178;2023-05-20T08:18:14;20.00;99.90
32400;DHT22;45045;45.440;9.178;2023-05-20T08:20:40;20.00;99.90
32400;DHT22;45045;45.440;9.178;2023-05-20T08:23:09;20.00;99.90
32400;DHT22;45045;45.440;9.178;2023-05-20T08:25:35;20.00;99.90
32400;DHT22;45045;45.440;9.178;2023-05-20T08:28:03;20.00;99.90
32400;DHT22;45045;45.440;9.178;2023-05-20T08:30:31;20.00;99.90
32400;DHT22;45045;45.440;9.178;2023-05-20T08:32:57;20.00;99.90
32400;DHT22;45045;45.440;9.178;2023-05-20T08:35:23;20.00;99.90
32400;DHT22;45045;45.440;9.178;2023-05-20T08:37:48;20.00;99.90
32400;DHT22;45045;45.440;9.178;2023-05-20T08:40:15;20.10;99.90
32400;DHT22;45045;45.440;9.178;2023-05-20T08:42:44;20.00;99.90
32400;DHT22;45045;45.440;9.178;2023-05-20T08:45:11;20.10;99.90
32400;DHT22;45045;45.440;9.178;2023-05-20T08:47:41;20.10;99.90
32400;DHT22;45045;45.440;9.178;2023-05-20T08:50:08;20.10;99.90
32400;DHT22;45045;45.440;9.178;2023-05-20T08:52:37;20.10;99.90
32400;DHT22;45045;45.440;9.178;2023-05-20T08:55:04;20.10;99.90
32400;DHT22;45045;45.440;9.178;2023-05-20T08:57:32;20.10;99.90
32400;DHT22;45045;45.440;9.178;2023-05-20T08:59:58;20.10;99.90
32400;DHT22;45045;45.440;9.178;2023-05-20T09:02:24;20.10;99.90
32400;DHT22;45045;45.440;9.178;2023-05-20T09:04:50;20.10;99.90
32400;DHT22;45045;45.440;9.178;2023-05-20T09:07:29;20.10;99.90
32400;DHT22;45045;45.440;9.178;2023-05-20T09:09:55;20.20;99.90
32400;DHT22;45045;45.440;9.178;2023-05-20T09:12:21;20.10;99.90
32400;DHT22;45045;45.440;9.178;2023-05-20T09:14:47;20.10;99.90
32400;DHT22;45045;45.440;9.178;2023-05-20T09:17:13;20.10;99.90
32400;DHT22;45045;45.440;9.178;2023-05-20T09:19:38;20.10;99.90
32400;DHT22;45045;45.440;9.178;2023-05-20T09:22:04;20.10;99.90
32400;DHT22;45045;45.440;9.178;2023-05-20T09:24:30;20.10;99.90
32400;DHT22;45045;45.440;9.178;2023-05-20T09:26:56;20.10;99.90
32400;DHT22;45045;45.440;9.178;2023-05-20T09:29:23;20.10;99.90
32400;DHT22;45045;45.440;9.178;2023-05-20T09:31:49;20.10;99.90
32400;DHT22;45045;45.440;9.178;2023-05-20T09:34:16;20.20;99.90
32400;DHT22;45045;45.440;9.178;2023-05-20T09:36:43;20.20;99.90
32400;DHT22;45045;45.440;9.178;2023-05-20T09:39:14;20.20;99.90
32400;DHT22;45045;45.440;9.178;2023-05-20T09:42:04;20.20;99.90
32400;DHT22;45045;45.440;9.178;2023-05-20T09:44:32;20.20;99.90
32400;DHT22;45045;45.440;9.178;2023-05-20T09:46:58;20.20;99.90
32400;DHT22;45045;45.440;9.178;2023-05-20T09:49:25;20.20;99.90
32400;DHT22;45045;45.440;9.178;2023-05-20T09:51:53;20.20;99.90
32400;DHT22;45045;45.440;9.178;2023-05-20T09:54:21;20.20;99.90
32400;DHT22;45045;45.440;9.178;2023-05-20T09:56:49;20.20;99.90
32400;DHT22;45045;45.440;9.178;2023-05-20T09:59:16;20.20;99.90
32400;DHT22;45045;45.440;9.178;2023-05-20T10:01:43;20.20;99.90
32400;DHT22;45045;45.440;9.178;2023-05-20T10:04:11;20.30;99.90
32400;DHT22;45045;45.440;9.178;2023-05-20T10:06:45;20.30;99.90
32400;DHT22;45045;45.440;9.178;2023-05-20T10:12:26;20.30;99.90
32400;DHT22;45045;45.440;9.178;2023-05-20T10:15:03;20.30;99.90
32400;DHT22;45045;45.440;9.178;2023-05-20T10:17:57;20.30;99.90
32400;DHT22;45045;45.440;9.178;2023-05-20T10:20:26;20.30;99.90
32400;DHT22;45045;45.440;9.178;2023-05-20T10:22:58;20.30;99.90
32400;DHT22;45045;45.440;9.178;2023-05-20T10:25:26;20.30;99.90
32400;DHT22;45045;45.440;9.178;2023-05-20T10:28:03;20.30;99.90
32400;DHT22;45045;45.440;9.178;2023-05-20T10:30:29;20.30;99.90
32400;DHT22;45045;45.440;9.178;2023-05-20T10:32:56;20.30;99.90
32400;DHT22;45045;45.440;9.178;2023-05-20T10:35:25;20.30;99.90
32400;DHT22;45045;45.440;9.178;2023-05-20T10:37:53;20.30;99.90
32400;DHT22;45045;45.440;9.178;2023-05-20T10:40:21;20.30;99.90
32400;DHT22;45045;45.440;9.178;2023-05-20T10:42:47;20.30;99.90
32400;DHT22;45045;45.440;9.178;2023-05-20T10:45:27;20.30;99.90
32400;DHT22;45045;45.440;9.178;2023-05-20T10:47:57;20.30;99.90
32400;DHT22;45045;45.440;9.178;2023-05-20T10:50:33;20.40;99.90
32400;DHT22;45045;45.440;9.178;2023-05-20T10:53:06;20.30;99.90
32400;DHT22;45045;45.440;9.178;2023-05-20T10:55:37;20.40;99.90
32400;DHT22;45045;45.440;9.178;2023-05-20T10:58:04;20.40;99.90
32400;DHT22;45045;45.440;9.178;2023-05-20T11:00:30;20.40;99.90
32400;DHT22;45045;45.440;9.178;2023-05-20T11:02:56;20.40;99.90
32400;DHT22;45045;45.440;9.178;2023-05-20T11:05:23;20.40;99.90
32400;DHT22;45045;45.440;9.178;2023-05-20T11:08:00;20.40;99.90
32400;DHT22;45045;45.440;9.178;2023-05-20T11:10:25;20.40;99.90
32400;DHT22;45045;45.440;9.178;2023-05-20T11:12:51;20.40;99.90
32400;DHT22;45045;45.440;9.178;2023-05-20T11:15:18;20.40;99.90
32400;DHT22;45045;45.440;9.178;2023-05-20T11:17:56;20.40;99.90
32400;DHT22;45045;45.440;9.178;2023-05-20T11:20:22;20.40;99.90
32400;DHT22;45045;45.440;9.178;2023-05-20T11:22:50;20.40;99.90
32400;DHT22;45045;45.440;9.178;2023-05-20T11:25:17;20.40;99.90
32400;DHT22;45045;45.440;9.178;2023-05-20T11:27:43;20.40;99.90
32400;DHT22;45045;45.440;9.178;2023-05-20T11:30:11;20.40;99.90
32400;DHT22;45045;45.440;9.178;2023-05-20T11:32:43;20.40;99.90
32400;DHT22;45045;45.440;9.178;2023-05-20T11:35:22;20.40;99.90
32400;DHT22;45045;45.440;9.178;2023-05-20T11:38:02;20.50;99.90
32400;DHT22;45045;45.440;9.178;2023-05-20T11:40:30;20.50;99.90
32400;DHT22;45045;45.440;9.178;2023-05-20T11:42:58;20.50;99.90
32400;DHT22;45045;45.440;9.178;2023-05-20T11:45:24;20.50;99.90
32400;DHT22;45045;45.440;9.178;2023-05-20T11:48:00;20.60;99.90
32400;DHT22;45045;45.440;9.178;2023-05-20T11:50:26;20.60;99.90
32400;DHT22;45045;45.440;9.178;2023-05-20T11:52:59;20.60;99.90
32400;DHT22;45045;45.440;9.178;2023-05-20T11:55:25;20.60;99.90
32400;DHT22;45045;45.440;9.178;2023-05-20T11:57:51;20.60;99.90
32400;DHT22;45045;45.440;9.178;2023-05-20T12:00:17;20.60;99.90
32400;DHT22;45045;45.440;9.178;2023-05-20T12:02:43;20.60;99.90
32400;DHT22;45045;45.440;9.178;2023-05-20T12:05:09;20.60;99.90
32400;DHT22;45045;45.440;9.178;2023-05-20T12:07:36;20.60;99.90
32400;DHT22;45045;45.440;9.178;2023-05-20T12:10:05;20.60;99.90
32400;DHT22;45045;45.440;9.178;2023-05-20T12:12:31;20.60;99.90
32400;DHT22;45045;45.440;9.178;2023-05-20T12:14:57;20.60;99.90
32400;DHT22;45045;45.440;9.178;2023-05-20T12:17:22;20.60;99.90
32400;DHT22;45045;45.440;9.178;2023-05-20T12:19:48;20.60;99.90
32400;DHT22;45045;45.440;9.178;2023-05-20T12:22:14;20.60;99.90
32400;DHT22;45045;45.440;9.178;2023-05-20T12:24:40;20.60;99.90
32400;DHT22;45045;45.440;9.178;2023-05-20T12:27:06;20.60;99.90
32400;DHT22;45045;45.440;9.178;2023-05-20T12:29:32;20.70;99.90
32400;DHT22;45045;45.440;9.178;2023-05-20T12:31:58;20.60;99.90
32400;DHT22;45045;45.440;9.178;2023-05-20T12:34:25;20.60;99.90
32400;DHT22;45045;45.440;9.178;2023-05-20T12:36:50;20.70;99.90
32400;DHT22;45045;45.440;9.178;2023-05-20T12:39:17;20.70;99.90
32400;DHT22;45045;45.440;9.178;2023-05-20T12:41:47;20.70;99.90
32400;DHT22;45045;45.440;9.178;2023-05-20T12:44:12;20.70;99.90
32400;DHT22;45045;45.440;9.178;2023-05-20T12:46:38;20.80;99.90
32400;DHT22;45045;45.440;9.178;2023-05-20T12:49:04;20.80;99.90
32400;DHT22;45045;45.440;9.178;2023-05-20T12:51:30;20.80;99.90
32400;DHT22;45045;45.440;9.178;2023-05-20T12:53:55;20.80;99.90
32400;DHT22;45045;45.440;9.178;2023-05-20T12:56:21;20.80;99.90
32400;DHT22;45045;45.440;9.178;2023-05-20T12:58:48;20.80;99.90
32400;DHT22;45045;45.440;9.178;2023-05-20T13:01:13;20.80;99.90
32400;DHT22;45045;45.440;9.178;2023-05-20T13:03:39;20.80;99.90
32400;DHT22;45045;45.440;9.178;2023-05-20T13:06:05;20.80;99.90
32400;DHT22;45045;45.440;9.178;2023-05-20T13:08:31;20.80;99.90
32400;DHT22;45045;45.440;9.178;2023-05-20T13:10:57;20.80;99.90
32400;DHT22;45045;45.440;9.178;2023-05-20T13:13:23;20.80;99.90
32400;DHT22;45045;45.440;9.178;2023-05-20T13:15:49;20.80;99.90
32400;DHT22;45045;45.440;9.178;2023-05-20T13:18:15;20.80;99.90
32400;DHT22;45045;45.440;9.178;2023-05-20T13:20:42;20.80;99.90
32400;DHT22;45045;45.440;9.178;2023-05-20T13:23:08;20.80;99.90
32400;DHT22;45045;45.440;9.178;2023-05-20T13:25:33;20.80;99.90
32400;DHT22;45045;45.440;9.178;2023-05-20T13:28:01;20.80;99.90
32400;DHT22;45045;45.440;9.178;2023-05-20T13:30:27;20.80;99.90
32400;DHT22;45045;45.440;9.178;2023-05-20T13:32:53;20.80;99.90
32400;DHT22;45045;45.440;9.178;2023-05-20T13:35:19;20.80;99.90
32400;DHT22;45045;45.440;9.178;2023-05-20T13:37:45;20.80;99.90
32400;DHT22;45045;45.440;9.178;2023-05-20T13:40:11;20.80;99.90
32400;DHT22;45045;45.440;9.178;2023-05-20T13:42:37;20.70;99.90
32400;DHT22;45045;45.440;9.178;2023-05-20T13:45:03;20.80;99.90
32400;DHT22;45045;45.440;9.178;2023-05-20T13:47:29;20.80;99.90
32400;DHT22;45045;45.440;9.178;2023-05-20T13:49:55;20.80;99.90
32400;DHT22;45045;45.440;9.178;2023-05-20T13:52:21;20.80;99.90
32400;DHT22;45045;45.440;9.178;2023-05-20T13:54:46;20.80;99.90
32400;DHT22;45045;45.440;9.178;2023-05-20T13:57:15;20.70;99.90
32400;DHT22;45045;45.440;9.178;2023-05-20T13:59:41;20.70;99.90
32400;DHT22;45045;45.440;9.178;2023-05-20T14:02:07;20.70;99.90
32400;DHT22;45045;45.440;9.178;2023-05-20T14:04:33;20.70;99.90
32400;DHT22;45045;45.440;9.178;2023-05-20T14:07:03;20.70;99.90
32400;DHT22;45045;45.440;9.178;2023-05-20T14:09:29;20.70;99.90
32400;DHT22;45045;45.440;9.178;2023-05-20T14:11:55;20.70;99.90
32400;DHT22;45045;45.440;9.178;2023-05-20T14:14:21;20.70;99.90
32400;DHT22;45045;45.440;9.178;2023-05-20T14:16:47;20.70;99.90
32400;DHT22;45045;45.440;9.178;2023-05-20T14:19:12;20.80;99.90
32400;DHT22;45045;45.440;9.178;2023-05-20T14:21:38;20.70;99.90
32400;DHT22;45045;45.440;9.178;2023-05-20T14:24:04;20.70;99.90
32400;DHT22;45045;45.440;9.178;2023-05-20T14:26:32;20.70;99.90
32400;DHT22;45045;45.440;9.178;2023-05-20T14:28:57;20.70;99.90
32400;DHT22;45045;45.440;9.178;2023-05-20T14:31:23;20.70;99.90
32400;DHT22;45045;45.440;9.178;2023-05-20T14:33:49;20.70;99.90
32400;DHT22;45045;45.440;9.178;2023-05-20T14:36:15;20.70;99.90
32400;DHT22;45045;45.440;9.178;2023-05-20T14:38:40;20.70;99.90
32400;DHT22;45045;45.440;9.178;2023-05-20T14:41:06;20.70;99.90
32400;DHT22;45045;45.440;9.178;2023-05-20T14:43:32;20.70;99.90
32400;DHT22;45045;45.440;9.178;2023-05-20T14:45:58;20.70;99.90
32400;DHT22;45045;45.440;9.178;2023-05-20T14:48:23;20.70;99.90
32400;DHT22;45045;45.440;9.178;2023-05-20T14:50:49;20.70;99.90
32400;DHT22;45045;45.440;9.178;2023-05-20T14:53:16;20.70;99.90
32400;DHT22;45045;45.440;9.178;2023-05-20T14:55:41;20.70;99.90
32400;DHT22;45045;45.440;9.178;2023-05-20T14:58:07;20.70;99.90
32400;DHT22;45045;45.440;9.178;2023-05-20T15:00:33;20.70;99.90
32400;DHT22;45045;45.440;9.178;2023-05-20T15:02:59;20.70;99.90
32400;DHT22;45045;45.440;9.178;2023-05-20T15:05:25;20.70;99.90
32400;DHT22;45045;45.440;9.178;2023-05-20T15:07:51;20.70;99.90
32400;DHT22;45045;45.440;9.178;2023-05-20T15:10:16;20.70;99.90
32400;DHT22;45045;45.440;9.178;2023-05-20T15:12:42;20.70;99.90
32400;DHT22;45045;45.440;9.178;2023-05-20T15:15:08;20.70;99.90
32400;DHT22;45045;45.440;9.178;2023-05-20T15:17:34;20.70;99.90
32400;DHT22;45045;45.440;9.178;2023-05-20T15:20:00;20.70;99.90
32400;DHT22;45045;45.440;9.178;2023-05-20T15:22:26;20.70;99.90
32400;DHT22;45045;45.440;9.178;2023-05-20T15:24:52;20.60;99.90
32400;DHT22;45045;45.440;9.178;2023-05-20T15:27:18;20.70;99.90
32400;DHT22;45045;45.440;9.178;2023-05-20T15:29:44;20.70;99.90